createdAt,value
2019-01-23T00:01:37.432Z,5.00
2019-01-23T00:04:06.187Z,4.80
2019-01-23T00:06:34.813Z,4.70
2019-01-23T00:09:05.935Z,4.90
2019-01-23T00:11:34.397Z,4.90
2019-01-23T00:14:03.072Z,4.70
2019-01-23T00:16:31.592Z,5.00
2019-01-23T00:19:00.099Z,5.20
2019-01-23T00:21:28.791Z,4.80
2019-01-23T00:23:57.308Z,4.90
2019-01-23T00:26:26.022Z,4.70
2019-01-23T00:28:54.668Z,4.70
2019-01-23T00:31:23.251Z,4.90
2019-01-23T00:33:51.822Z,4.80
2019-01-23T00:38:48.895Z,4.90
2019-01-23T00:41:17.353Z,4.60
2019-01-23T00:43:46.058Z,4.50
2019-01-23T00:46:14.717Z,4.50
2019-01-23T00:51:12.576Z,4.60
2019-01-23T00:53:41.225Z,4.80
2019-01-23T00:56:09.696Z,4.30
2019-01-23T00:58:38.287Z,4.20
2019-01-23T01:01:07.652Z,4.40
2019-01-23T01:03:37.597Z,3.80
2019-01-23T01:06:06.298Z,3.50
2019-01-23T01:08:34.758Z,3.00
2019-01-23T01:11:03.658Z,2.80
2019-01-23T01:13:32.245Z,2.90
2019-01-23T01:18:29.207Z,2.60
2019-01-23T01:20:57.878Z,2.70
2019-01-23T01:25:55.031Z,2.90
2019-01-23T01:28:23.741Z,3.10
2019-01-23T01:30:52.130Z,3.10
2019-01-23T01:35:49.011Z,3.00
2019-01-23T01:38:17.663Z,3.00
2019-01-23T01:40:46.005Z,3.00
2019-01-23T01:43:14.603Z,3.10
2019-01-23T01:45:43.058Z,3.00
2019-01-23T01:48:11.762Z,2.80
2019-01-23T01:50:40.366Z,3.20
2019-01-23T01:53:08.960Z,2.90
2019-01-23T01:55:37.484Z,3.00
2019-01-23T01:58:10.007Z,3.10
2019-01-23T02:00:36.834Z,2.90
2019-01-23T02:05:34.896Z,3.00
2019-01-23T02:08:03.679Z,3.00
2019-01-23T02:10:32.305Z,2.90
2019-01-23T02:15:29.029Z,3.00
2019-01-23T02:17:57.681Z,3.00
2019-01-23T02:20:27.664Z,3.10
2019-01-23T02:22:57.331Z,3.20
2019-01-23T02:25:26.255Z,3.00
2019-01-23T02:27:54.933Z,2.90
2019-01-23T02:30:24.603Z,2.90
2019-01-23T02:32:53.306Z,3.20
2019-01-23T02:35:22.127Z,3.10
2019-01-23T02:40:23.121Z,2.90
2019-01-23T02:42:51.804Z,3.10
2019-01-23T02:47:49.365Z,2.90
2019-01-23T02:50:17.813Z,2.80
2019-01-23T02:52:46.465Z,3.00
2019-01-23T02:57:44.144Z,3.10
2019-01-23T03:00:17.595Z,2.70
2019-01-23T03:05:17.452Z,3.20
2019-01-23T03:07:46.493Z,3.00
2019-01-23T03:10:17.224Z,2.90
2019-01-23T03:12:45.981Z,3.20
2019-01-23T03:15:15.516Z,2.90
2019-01-23T03:17:44.309Z,2.60
2019-01-23T03:20:14.864Z,2.70
2019-01-23T03:22:43.369Z,2.60
2019-01-23T03:25:12.454Z,2.50
2019-01-23T03:27:41.097Z,2.50
2019-01-23T03:30:23.045Z,2.60
2019-01-23T03:35:19.767Z,2.60
2019-01-23T03:37:49.323Z,2.80
2019-01-23T03:40:19.681Z,2.60
2019-01-23T03:42:48.365Z,2.80
2019-01-23T03:47:46.657Z,2.80
2019-01-23T03:52:44.313Z,2.70
2019-01-23T03:55:13.605Z,2.80
2019-01-23T03:57:42.425Z,2.60
2019-01-23T04:00:13.458Z,2.60
2019-01-23T04:02:42.104Z,2.60
2019-01-23T04:07:39.355Z,2.70
2019-01-23T04:10:10.738Z,2.80
2019-01-23T04:12:39.252Z,2.60
2019-01-23T04:15:09.233Z,2.70
2019-01-23T04:17:37.732Z,2.80
2019-01-23T04:20:09.926Z,3.00
2019-01-23T04:22:38.384Z,2.80
2019-01-23T04:25:07.388Z,3.00
2019-01-23T04:27:36.008Z,2.60
2019-01-23T04:30:06.264Z,2.60
2019-01-23T04:35:03.309Z,2.30
2019-01-23T04:37:31.754Z,2.40
2019-01-23T04:42:28.530Z,2.30
2019-01-23T04:44:56.940Z,2.20
2019-01-23T04:49:53.608Z,2.50
2019-01-23T04:52:40.075Z,2.70
2019-01-23T04:57:37.241Z,2.40
2019-01-23T05:02:34.547Z,2.50
2019-01-23T05:07:32.454Z,2.70
2019-01-23T05:14:33.634Z,2.50
2019-01-23T05:22:56.457Z,2.60
2019-01-23T05:26:01.393Z,2.40
2019-01-23T05:28:31.283Z,2.60
2019-01-23T05:30:59.782Z,2.40
2019-01-23T05:33:28.294Z,2.20
2019-01-23T05:35:56.774Z,2.40
2019-01-23T05:40:53.800Z,2.60
2019-01-23T05:43:22.565Z,2.40
2019-01-23T05:45:51.044Z,2.50
2019-01-23T05:50:47.763Z,2.30
2019-01-23T05:53:16.301Z,2.40
2019-01-23T05:55:44.968Z,2.40
2019-01-23T05:58:14.592Z,2.40
2019-01-23T06:00:43.280Z,2.50
2019-01-23T06:10:38.093Z,2.80
2019-01-23T06:15:34.965Z,2.70
2019-01-23T06:18:03.770Z,2.60
2019-01-23T06:20:32.424Z,2.20
2019-01-23T06:23:01.092Z,2.70
2019-01-23T06:25:29.758Z,2.80
2019-01-23T06:27:58.378Z,2.70
2019-01-23T06:35:23.931Z,2.60
2019-01-23T06:37:52.398Z,2.30
2019-01-23T06:45:19.085Z,2.60
2019-01-23T06:50:21.806Z,3.00
2019-01-23T06:55:19.004Z,2.80
2019-01-23T07:00:22.196Z,3.00
2019-01-23T07:05:19.496Z,3.20
2019-01-23T07:07:48.155Z,3.10
2019-01-23T07:10:19.093Z,2.90
2019-01-23T07:15:16.433Z,2.90
2019-01-23T07:20:19.229Z,3.20
2019-01-23T07:22:47.993Z,3.10
2019-01-23T07:25:16.777Z,3.10
2019-01-23T07:27:45.340Z,3.10
2019-01-23T07:30:24.128Z,3.00
2019-01-23T07:35:18.959Z,3.00
2019-01-23T07:37:47.492Z,2.70
2019-01-23T07:40:16.960Z,2.80
2019-01-23T07:45:15.230Z,2.90
2019-01-23T07:50:12.553Z,2.70
2019-01-23T07:52:41.297Z,2.60
2019-01-23T07:55:11.830Z,2.40
2019-01-23T08:00:12.148Z,2.70
2019-01-23T08:07:37.550Z,2.60
2019-01-23T08:10:08.274Z,2.70
2019-01-23T08:12:36.852Z,2.80
2019-01-23T08:15:12.231Z,2.80
2019-01-23T08:20:11.502Z,2.60
2019-01-23T08:22:40.226Z,2.50
2019-01-23T08:25:08.814Z,2.70
2019-01-23T08:27:37.422Z,2.60
2019-01-23T08:32:34.536Z,3.20
2019-01-23T08:35:03.593Z,3.30
2019-01-23T08:37:31.966Z,3.00
2019-01-23T08:42:28.892Z,2.90
2019-01-23T08:44:57.260Z,3.10
2019-01-23T08:49:54.242Z,2.90
2019-01-23T08:52:22.653Z,3.10
2019-01-23T08:54:51.101Z,3.30
2019-01-23T08:57:19.772Z,3.50
2019-01-23T08:59:48.342Z,3.50
2019-01-23T09:02:16.911Z,3.40
2019-01-23T09:04:45.510Z,3.30
2019-01-23T09:09:42.438Z,3.20
2019-01-23T09:12:10.956Z,3.50
2019-01-23T09:14:39.672Z,3.30
2019-01-23T09:17:08.294Z,3.40
2019-01-23T09:19:36.868Z,3.30
2019-01-23T09:22:05.372Z,3.30
2019-01-23T09:24:33.892Z,3.30
2019-01-23T09:32:29.168Z,3.60
2019-01-23T09:38:24.592Z,3.40
2019-01-23T09:41:15.207Z,3.40
2019-01-23T09:44:16.598Z,3.50
2019-01-23T09:47:08.283Z,3.70
2019-01-23T09:52:57.788Z,3.70
2019-01-23T09:55:26.339Z,3.20
2019-01-23T09:57:57.468Z,3.40
2019-01-23T10:05:24.384Z,3.60
2019-01-23T10:07:52.916Z,3.50
2019-01-23T10:10:21.626Z,3.50
2019-01-23T10:12:50.350Z,3.40
2019-01-23T10:17:58.438Z,3.40
2019-01-23T10:20:27.035Z,3.60
2019-01-23T10:25:24.064Z,3.50
2019-01-23T10:27:52.712Z,3.60
2019-01-23T10:30:21.398Z,3.60
2019-01-23T10:32:49.981Z,3.80
2019-01-23T10:35:18.536Z,3.70
2019-01-23T10:37:48.357Z,3.40
2019-01-23T10:40:17.068Z,3.50
2019-01-23T10:45:14.748Z,3.30
2019-01-23T10:50:12.706Z,3.30
2019-01-23T10:52:41.376Z,3.50
2019-01-23T10:55:10.127Z,3.60
2019-01-23T11:00:10.741Z,3.40
2019-01-23T11:02:39.254Z,3.30
2019-01-23T11:05:56.274Z,3.60
2019-01-23T11:08:25.094Z,3.70
2019-01-23T11:10:53.693Z,6.20
2019-01-23T11:13:22.290Z,3.80
2019-01-23T11:18:20.026Z,3.80
2019-01-23T11:23:18.097Z,3.60
2019-01-23T11:25:46.900Z,3.80
2019-01-23T11:28:15.628Z,4.00
2019-01-23T11:30:44.401Z,4.00
2019-01-23T11:33:14.202Z,4.20
2019-01-23T11:35:42.876Z,4.20
2019-01-23T11:43:26.705Z,4.40
2019-01-23T11:48:23.524Z,4.50
2019-01-23T11:50:52.198Z,4.40
2019-01-23T11:53:20.777Z,4.60
2019-01-23T11:55:49.446Z,4.70
2019-01-23T11:58:17.980Z,4.80
2019-01-23T12:00:46.825Z,4.60
2019-01-23T12:04:56.715Z,4.90
2019-01-23T12:08:34.928Z,4.60
2019-01-23T12:15:14.640Z,4.50
2019-01-23T12:17:43.323Z,4.60
2019-01-23T12:20:12.330Z,4.60
2019-01-23T12:22:41.203Z,4.70
2019-01-23T12:25:10.009Z,5.00
2019-01-23T12:27:39.872Z,5.00
2019-01-23T12:30:15.239Z,5.40
2019-01-23T12:32:44.018Z,5.10
2019-01-23T12:35:12.661Z,5.10
2019-01-23T12:37:41.461Z,4.90
2019-01-23T12:40:11.093Z,4.70
2019-01-23T12:42:39.714Z,4.70
2019-01-23T12:47:38.350Z,4.40
2019-01-23T12:50:10.369Z,4.30
2019-01-23T12:52:38.967Z,3.90
2019-01-23T12:55:08.375Z,4.50
2019-01-23T12:57:56.304Z,4.60
2019-01-23T13:00:27.088Z,5.10
2019-01-23T13:02:55.747Z,5.70
2019-01-23T13:05:24.665Z,6.10
2019-01-23T13:07:53.460Z,6.10
2019-01-23T13:10:22.404Z,5.50
2019-01-23T13:12:51.792Z,5.50
2019-01-23T13:15:22.428Z,5.10
2019-01-23T13:17:52.302Z,5.40
2019-01-23T13:20:22.019Z,5.30
2019-01-23T13:22:50.563Z,5.20
2019-01-23T13:25:21.528Z,5.30
2019-01-23T13:27:50.276Z,5.10
2019-01-23T13:30:20.672Z,5.90
2019-01-23T13:32:49.364Z,5.50
2019-01-23T13:35:20.460Z,5.60
2019-01-23T13:37:49.179Z,6.00
2019-01-23T13:40:20.578Z,6.10
2019-01-23T13:42:49.257Z,6.20
2019-01-23T13:45:17.882Z,6.30
2019-01-23T13:47:46.533Z,6.70
2019-01-23T13:50:15.423Z,6.30
2019-01-23T13:52:43.996Z,6.40
2019-01-23T13:55:14.296Z,6.00
2019-01-23T13:57:44.090Z,6.00
2019-01-23T14:00:18.949Z,5.50
2019-01-23T14:02:47.622Z,5.20
2019-01-23T14:05:16.780Z,5.20
2019-01-23T14:10:15.310Z,4.80
2019-01-23T14:12:50.214Z,4.70
2019-01-23T14:15:37.957Z,4.40
2019-01-23T14:18:07.340Z,4.40
2019-01-23T14:25:39.375Z,4.20
2019-01-23T14:28:10.304Z,2.60
2019-01-23T14:33:08.936Z,4.30
2019-01-23T14:35:39.478Z,4.00
2019-01-23T14:38:08.134Z,4.10
2019-01-23T14:40:36.851Z,4.00
2019-01-23T14:45:34.303Z,4.20
2019-01-23T14:48:02.883Z,4.10
2019-01-23T14:50:31.406Z,4.40
2019-01-23T14:53:00.114Z,4.20
2019-01-23T14:55:28.837Z,4.30
2019-01-23T14:57:57.586Z,4.50
2019-01-23T15:00:27.104Z,4.30
2019-01-23T15:02:55.775Z,4.40
2019-01-23T15:07:53.766Z,4.60
2019-01-23T15:10:27.037Z,4.30
2019-01-23T15:15:25.532Z,4.40
2019-01-23T15:17:54.439Z,4.30
2019-01-23T15:25:23.805Z,3.80
2019-01-23T15:32:49.467Z,4.20
2019-01-23T15:35:18.646Z,3.90
2019-01-23T15:37:47.406Z,3.90
2019-01-23T15:42:45.811Z,4.00
2019-01-23T15:45:15.623Z,4.20
2019-01-23T15:47:44.128Z,4.20
2019-01-23T15:50:15.145Z,4.00
2019-01-23T15:52:44.954Z,3.80
2019-01-23T15:57:42.909Z,3.90
2019-01-23T16:00:15.541Z,3.80
2019-01-23T16:02:44.257Z,3.80
2019-01-23T16:05:13.235Z,3.70
2019-01-23T16:12:41.800Z,3.80
2019-01-23T16:17:42.664Z,3.80
2019-01-23T16:20:13.518Z,4.10
2019-01-23T16:22:44.419Z,3.80
2019-01-23T16:25:14.163Z,3.50
2019-01-23T16:30:17.573Z,3.70
2019-01-23T16:32:46.197Z,3.90
2019-01-23T16:37:44.836Z,3.60
2019-01-23T16:40:13.532Z,3.90
2019-01-23T16:42:43.325Z,3.70
2019-01-23T16:47:40.846Z,3.80
2019-01-23T16:52:39.988Z,3.50
2019-01-23T16:55:09.126Z,3.90
2019-01-23T16:57:37.703Z,3.70
2019-01-23T17:00:08.037Z,3.60
2019-01-23T17:02:38.761Z,3.50
2019-01-23T17:05:13.227Z,3.50
2019-01-23T17:10:13.123Z,3.20
2019-01-23T17:12:41.875Z,3.10
2019-01-23T17:15:11.223Z,2.90
2019-01-23T17:17:39.895Z,2.90
2019-01-23T17:22:38.415Z,3.10
2019-01-23T17:25:08.955Z,3.00
2019-01-23T17:27:37.618Z,2.80
2019-01-23T17:35:04.421Z,2.90
2019-01-23T17:37:33.007Z,3.00
2019-01-23T17:40:01.870Z,2.80
2019-01-23T17:42:30.670Z,2.90
2019-01-23T17:44:59.269Z,2.80
2019-01-23T17:49:56.291Z,2.90
2019-01-23T17:54:53.967Z,2.80
2019-01-23T17:57:22.592Z,2.80
2019-01-23T18:09:44.928Z,3.00
2019-01-23T18:14:41.782Z,2.70
2019-01-23T18:17:10.691Z,2.90
2019-01-23T18:19:39.461Z,3.10
2019-01-23T18:22:07.900Z,3.10
2019-01-23T18:27:05.107Z,3.10
2019-01-23T18:29:33.810Z,2.70
2019-01-23T18:32:08.279Z,2.70
2019-01-23T18:37:48.538Z,2.50
2019-01-23T18:40:53.133Z,2.70
2019-01-23T18:44:00.731Z,2.60
2019-01-23T18:47:00.286Z,2.70
2019-01-23T18:50:02.150Z,2.70
2019-01-23T18:54:58.909Z,2.70
2019-01-23T18:57:28.150Z,2.60
2019-01-23T18:59:59.392Z,2.50
2019-01-23T19:04:55.789Z,2.70
2019-01-23T19:07:24.457Z,2.80
2019-01-23T19:09:53.148Z,2.80
2019-01-23T19:12:21.895Z,2.80
2019-01-23T19:14:50.617Z,2.70
2019-01-23T19:17:19.377Z,2.80
2019-01-23T19:19:48.954Z,3.00
2019-01-23T19:27:14.227Z,2.90
2019-01-23T19:29:42.950Z,2.90
2019-01-23T19:34:40.157Z,2.90
2019-01-23T19:37:08.909Z,2.90
2019-01-23T19:47:03.949Z,2.80
2019-01-23T19:49:32.592Z,2.90
2019-01-23T19:54:29.503Z,3.30
2019-01-23T19:59:27.548Z,3.20
2019-01-23T20:04:25.308Z,3.00
2019-01-23T20:06:53.817Z,2.30
2019-01-23T20:09:22.524Z,2.90
2019-01-23T20:14:19.723Z,3.00
2019-01-23T20:16:48.288Z,2.90
2019-01-23T20:19:16.958Z,3.00
2019-01-23T20:21:45.489Z,3.20
2019-01-23T20:24:14.232Z,3.40
2019-01-23T20:26:42.991Z,3.20
2019-01-23T20:29:12.510Z,3.30
2019-01-23T20:34:09.334Z,3.10
2019-01-23T20:36:37.994Z,3.10
2019-01-23T20:39:10.009Z,3.10
2019-01-23T20:44:07.178Z,3.60
2019-01-23T20:49:04.157Z,3.30
2019-01-23T20:51:33.005Z,3.30
2019-01-23T20:54:01.414Z,3.40
2019-01-23T20:56:30.148Z,3.60
2019-01-23T21:01:27.104Z,3.40
2019-01-23T21:03:55.651Z,3.50
2019-01-23T21:06:24.423Z,3.60
2019-01-23T21:08:53.052Z,3.40
2019-01-23T21:11:21.700Z,3.40
2019-01-23T21:13:50.258Z,3.20
2019-01-23T21:21:15.578Z,3.50
2019-01-23T21:26:12.375Z,3.50
2019-01-23T21:31:09.172Z,3.20
2019-01-23T21:41:04.765Z,3.60
2019-01-23T21:48:30.005Z,3.70
2019-01-23T21:50:58.429Z,3.40
2019-01-23T21:53:27.003Z,3.60
2019-01-23T22:00:55.700Z,3.50
2019-01-23T22:03:24.333Z,3.60
2019-01-23T22:10:49.270Z,3.70
2019-01-23T22:13:17.718Z,3.60
2019-01-23T22:18:14.893Z,3.50
2019-01-23T22:23:12.077Z,3.80
2019-01-23T22:25:41.899Z,3.60
2019-01-23T22:28:10.630Z,3.50
2019-01-23T22:30:40.325Z,3.40
2019-01-23T22:33:08.946Z,3.90
2019-01-23T22:35:37.545Z,3.90
2019-01-23T22:40:34.769Z,3.50
2019-01-23T22:45:32.971Z,3.50
2019-01-23T22:55:27.691Z,3.50
2019-01-23T23:00:59.160Z,3.40
2019-01-23T23:03:27.544Z,3.20
2019-01-23T23:10:52.962Z,3.40
2019-01-23T23:15:50.138Z,3.30
2019-01-23T23:18:18.754Z,3.30
2019-01-23T23:23:15.802Z,3.40
2019-01-23T23:25:45.992Z,3.50
2019-01-23T23:28:14.823Z,3.20
2019-01-23T23:30:43.595Z,3.20
2019-01-23T23:35:40.484Z,3.60
2019-01-23T23:38:09.255Z,3.40
2019-01-23T23:40:37.739Z,3.20
2019-01-23T23:45:34.743Z,3.10
2019-01-23T23:50:31.976Z,2.80
2019-01-23T23:53:00.620Z,3.00
2019-01-23T23:55:29.298Z,3.10
